Terminal Aerodrome Forecast
Issued by NWS

Home | Current Version | Previous Version | Text Only | Print | Product List | Glossary On
Versions: 1 2 3 4 5 6 7 8 9 10 11 12 13 14 15 16
000
FTUS46 KLOX 031803 AAA
TAFLGB
TAF AMD
KLGB 031803Z 0318/0418 21005KT P6SM SCT015
     FM040000 28008KT P6SM SKC
     FM040500 VRB03KT 5SM HZ SKC
     FM040700 VRB03KT 5SM BR OVC010=

USA.gov is the U.S. government's official web portal to all federal, state and local government web resources and services.